createdAt,value
2022-10-15T00:00:49.569Z,5.40
2022-10-15T00:03:15.954Z,5.50
2022-10-15T00:05:42.732Z,5.50
2022-10-15T00:08:11.139Z,5.20
2022-10-15T00:10:38.563Z,5.30
2022-10-15T00:13:05.215Z,5.07
2022-10-15T00:15:31.822Z,5.22
2022-10-15T00:17:58.492Z,4.85
2022-10-15T00:20:25.027Z,5.50
2022-10-15T00:22:54.338Z,5.20
2022-10-15T00:25:20.660Z,5.65
2022-10-15T00:27:47.020Z,5.50
2022-10-15T00:30:13.557Z,5.55
2022-10-15T00:32:40.068Z,5.55
2022-10-15T00:35:06.800Z,4.97
2022-10-15T00:37:33.215Z,5.68
2022-10-15T00:39:59.695Z,5.50
2022-10-15T00:42:26.257Z,5.90
2022-10-15T00:44:56.948Z,5.43
2022-10-15T00:47:39.612Z,5.63
2022-10-15T00:50:13.727Z,5.43
2022-10-15T00:52:59.790Z,5.70
2022-10-15T00:55:32.554Z,5.20
2022-10-15T00:58:07.463Z,5.07
2022-10-15T01:00:34.021Z,5.07
2022-10-15T01:03:00.522Z,5.60
2022-10-15T01:05:27.008Z,5.20
2022-10-15T01:07:53.360Z,5.30
2022-10-15T01:10:21.393Z,5.13
2022-10-15T01:13:07.409Z,4.88
2022-10-15T01:15:44.563Z,5.00
2022-10-15T01:18:10.835Z,5.28
2022-10-15T01:21:01.324Z,5.25
2022-10-15T01:24:05.293Z,5.13
2022-10-15T01:27:09.328Z,5.28
2022-10-15T01:29:56.629Z,5.25
2022-10-15T01:32:29.159Z,5.95
2022-10-15T01:35:08.224Z,5.22
2022-10-15T01:37:40.469Z,4.93
2022-10-15T01:40:15.540Z,5.20
2022-10-15T01:43:09.506Z,5.75
2022-10-15T01:45:51.349Z,5.68
2022-10-15T01:48:18.915Z,5.07
2022-10-15T01:50:50.438Z,5.18
2022-10-15T01:53:26.730Z,4.65
2022-10-15T01:56:01.742Z,5.07
2022-10-15T01:58:30.579Z,4.97
2022-10-15T02:00:58.854Z,5.18
2022-10-15T02:03:25.300Z,5.50
2022-10-15T02:06:01.412Z,5.20
2022-10-15T02:08:39.461Z,5.57
2022-10-15T02:11:11.487Z,5.65
2022-10-15T02:14:07.259Z,5.20
2022-10-15T02:16:57.084Z,5.50
2022-10-15T02:19:39.371Z,5.40
2022-10-15T02:22:14.804Z,4.63
2022-10-15T02:24:51.715Z,5.00
2022-10-15T02:27:21.770Z,6.07
2022-10-15T02:29:51.078Z,5.60
2022-10-15T02:32:20.923Z,4.93
2022-10-15T02:34:49.698Z,5.30
2022-10-15T02:37:20.921Z,5.47
2022-10-15T02:39:47.312Z,5.15
2022-10-15T02:42:16.865Z,5.72
2022-10-15T02:44:43.444Z,5.75
2022-10-15T02:47:10.201Z,6.07
2022-10-15T02:49:37.098Z,5.78
2022-10-15T02:52:06.018Z,5.35
2022-10-15T02:54:32.319Z,5.38
2022-10-15T02:56:58.862Z,5.88
2022-10-15T02:59:25.385Z,5.55
2022-10-15T03:01:51.696Z,5.75
2022-10-15T03:04:18.041Z,5.38
2022-10-15T03:06:44.591Z,5.88
2022-10-15T03:09:13.453Z,5.82
2022-10-15T03:11:40.062Z,5.22
2022-10-15T03:14:06.399Z,5.22
2022-10-15T03:16:32.941Z,5.88
2022-10-15T03:18:59.324Z,6.07
2022-10-15T03:21:25.806Z,5.85
2022-10-15T03:23:52.109Z,5.78
2022-10-15T03:26:18.484Z,5.55
2022-10-15T03:28:44.827Z,5.50
2022-10-15T03:31:13.413Z,5.43
2022-10-15T03:33:39.793Z,5.93
2022-10-15T03:36:06.766Z,5.65
2022-10-15T03:38:33.157Z,6.25
2022-10-15T03:40:59.481Z,6.07
2022-10-15T03:43:26.030Z,5.90
2022-10-15T03:45:53.113Z,5.35
2022-10-15T03:48:19.837Z,5.88
2022-10-15T03:50:46.732Z,6.30
2022-10-15T03:53:13.397Z,6.88
2022-10-15T03:55:39.747Z,5.75
2022-10-15T03:58:06.061Z,5.65
2022-10-15T04:00:32.395Z,6.35
2022-10-15T04:02:58.777Z,5.78
2022-10-15T04:05:25.060Z,5.72
2022-10-15T04:07:51.373Z,6.00
2022-10-15T04:10:17.768Z,6.63
2022-10-15T04:12:44.113Z,5.85
2022-10-15T04:15:10.719Z,6.30
2022-10-15T04:17:37.085Z,6.65
2022-10-15T04:20:04.962Z,7.25
2022-10-15T04:22:31.362Z,5.70
2022-10-15T04:24:58.033Z,6.15
2022-10-15T04:27:24.441Z,5.93
2022-10-15T04:29:50.757Z,6.32
2022-10-15T04:32:17.499Z,6.10
2022-10-15T04:34:46.310Z,6.72
2022-10-15T04:37:12.633Z,6.38
2022-10-15T04:39:38.993Z,6.18
2022-10-15T04:42:05.444Z,6.78
2022-10-15T04:44:31.716Z,6.40
2022-10-15T04:46:58.276Z,7.10
2022-10-15T04:49:24.653Z,5.50
2022-10-15T04:51:50.958Z,6.32
2022-10-15T04:54:17.416Z,7.40
2022-10-15T04:56:43.733Z,6.35
2022-10-15T04:59:10.379Z,6.38
2022-10-15T05:01:36.713Z,6.20
2022-10-15T05:04:03.703Z,6.80
2022-10-15T05:06:32.580Z,5.90
2022-10-15T05:08:58.918Z,6.32
2022-10-15T05:11:27.488Z,6.18
2022-10-15T05:13:57.588Z,7.05
2022-10-15T05:16:29.316Z,5.55
2022-10-15T05:18:58.560Z,5.85
2022-10-15T05:21:25.047Z,6.25
2022-10-15T05:23:51.912Z,7.13
2022-10-15T05:26:20.620Z,6.60
2022-10-15T05:28:47.608Z,6.60
2022-10-15T05:31:19.132Z,7.57
2022-10-15T05:33:47.369Z,6.55
2022-10-15T05:36:19.804Z,6.97
2022-10-15T05:38:55.128Z,6.53
2022-10-15T05:41:22.424Z,6.57
2022-10-15T05:43:50.585Z,7.35
2022-10-15T05:46:18.114Z,7.10
2022-10-15T05:48:48.885Z,7.15
2022-10-15T05:51:15.670Z,7.72
2022-10-15T05:53:47.205Z,7.90
2022-10-15T05:56:15.314Z,7.32
2022-10-15T05:58:41.760Z,8.10
2022-10-15T06:01:10.488Z,7.18
2022-10-15T06:03:37.490Z,7.72
2022-10-15T06:06:04.402Z,8.30
2022-10-15T06:08:31.653Z,7.25
2022-10-15T06:11:06.907Z,7.05
2022-10-15T06:13:40.573Z,8.27
2022-10-15T06:16:07.104Z,7.88
2022-10-15T06:18:34.129Z,8.07
2022-10-15T06:21:00.427Z,7.15
2022-10-15T06:23:26.811Z,7.90
2022-10-15T06:25:53.255Z,8.32
2022-10-15T06:28:19.743Z,7.28
2022-10-15T06:30:46.237Z,7.18
2022-10-15T06:33:12.958Z,7.93
2022-10-15T06:35:40.487Z,7.30
2022-10-15T06:38:06.879Z,7.38
2022-10-15T06:40:33.243Z,7.57
2022-10-15T06:43:10.247Z,7.25
2022-10-15T06:45:38.598Z,8.98
2022-10-15T06:48:08.233Z,7.93
2022-10-15T06:50:38.757Z,8.18
2022-10-15T06:53:05.951Z,7.82
2022-10-15T06:55:32.517Z,7.78
2022-10-15T06:57:58.982Z,7.25
2022-10-15T07:00:25.896Z,7.90
2022-10-15T07:02:52.441Z,7.78
2022-10-15T07:05:19.451Z,7.50
2022-10-15T07:07:56.416Z,7.65
2022-10-15T07:10:26.825Z,7.82
2022-10-15T07:12:54.865Z,7.20
2022-10-15T07:15:21.529Z,7.30
2022-10-15T07:17:53.311Z,7.18
2022-10-15T07:20:22.035Z,7.17
2022-10-15T07:22:51.174Z,7.38
2022-10-15T07:25:17.666Z,7.40
2022-10-15T07:27:44.017Z,6.75
2022-10-15T07:30:10.731Z,6.05
2022-10-15T07:32:37.221Z,6.20
2022-10-15T07:35:03.888Z,6.18
2022-10-15T07:37:31.545Z,5.65
2022-10-15T07:40:00.833Z,5.30
2022-10-15T07:42:27.203Z,6.05
2022-10-15T07:44:53.943Z,5.82
2022-10-15T07:47:20.538Z,6.03
2022-10-15T07:49:46.977Z,6.00
2022-10-15T07:52:13.357Z,5.68
2022-10-15T07:54:39.745Z,5.55
2022-10-15T07:57:09.184Z,6.22
2022-10-15T07:59:35.873Z,6.10
2022-10-15T08:02:14.383Z,5.68
2022-10-15T08:04:40.679Z,5.63
2022-10-15T08:07:09.592Z,5.53
2022-10-15T08:09:36.971Z,5.30
2022-10-15T08:12:03.481Z,5.35
2022-10-15T08:14:29.904Z,5.65
2022-10-15T08:16:56.264Z,5.40
2022-10-15T08:19:22.688Z,5.35
2022-10-15T08:21:48.976Z,5.40
2022-10-15T08:24:15.552Z,5.65
2022-10-15T08:26:41.866Z,5.75
2022-10-15T08:29:09.575Z,5.60
2022-10-15T08:31:36.017Z,5.25
2022-10-15T08:34:02.812Z,5.32
2022-10-15T08:36:31.859Z,5.10
2022-10-15T08:38:58.296Z,5.38
2022-10-15T08:41:37.809Z,5.22
2022-10-15T08:44:05.209Z,5.25
2022-10-15T08:46:38.954Z,5.28
2022-10-15T08:49:14.318Z,5.03
2022-10-15T08:51:47.030Z,5.20
2022-10-15T08:56:47.138Z,5.07
2022-10-15T08:59:36.822Z,4.68
2022-10-15T09:02:13.445Z,5.22
2022-10-15T09:04:49.213Z,5.30
2022-10-15T09:07:42.669Z,5.10
2022-10-15T09:10:44.247Z,4.78
2022-10-15T09:13:16.445Z,5.00
2022-10-15T09:15:50.783Z,5.13
2022-10-15T09:18:25.777Z,5.20
2022-10-15T09:20:53.657Z,5.10
2022-10-15T09:23:27.389Z,5.07
2022-10-15T09:26:09.032Z,4.80
2022-10-15T09:28:59.292Z,5.03
2022-10-15T09:31:33.993Z,5.07
2022-10-15T09:34:29.839Z,5.10
2022-10-15T09:37:01.612Z,5.20
2022-10-15T09:39:47.808Z,5.00
2022-10-15T09:42:26.654Z,4.90
2022-10-15T09:44:57.452Z,5.15
2022-10-15T09:47:27.747Z,5.00
2022-10-15T09:49:54.098Z,5.30
2022-10-15T09:52:53.882Z,4.85
2022-10-15T09:55:51.002Z,5.00
2022-10-15T09:58:26.051Z,5.13
2022-10-15T10:01:04.982Z,4.85
2022-10-15T10:03:34.086Z,4.97
2022-10-15T10:06:09.376Z,5.13
2022-10-15T10:08:39.928Z,4.95
2022-10-15T10:11:10.142Z,5.00
2022-10-15T10:13:52.065Z,4.70
2022-10-15T10:16:19.957Z,4.83
2022-10-15T10:19:11.313Z,5.28
2022-10-15T10:21:39.291Z,5.22
2022-10-15T10:24:28.496Z,5.20
2022-10-15T10:26:55.121Z,5.15
2022-10-15T10:29:33.514Z,5.00
2022-10-15T10:32:00.223Z,5.00
2022-10-15T10:34:32.784Z,5.00
2022-10-15T10:37:02.955Z,5.05
2022-10-15T10:39:32.103Z,5.10
2022-10-15T10:42:00.808Z,4.80
2022-10-15T10:44:28.945Z,5.10
2022-10-15T10:47:08.385Z,5.05
2022-10-15T10:49:40.013Z,5.18
2022-10-15T10:52:18.189Z,4.95
2022-10-15T10:54:44.899Z,5.25
2022-10-15T10:57:13.645Z,5.10
2022-10-15T10:59:50.146Z,5.18
2022-10-15T11:02:16.474Z,5.78
2022-10-15T11:04:43.098Z,5.05
2022-10-15T11:07:22.052Z,5.20
2022-10-15T11:10:28.681Z,5.13
2022-10-15T11:13:07.922Z,5.10
2022-10-15T11:15:43.092Z,5.07
2022-10-15T11:18:40.284Z,6.07
2022-10-15T11:21:07.150Z,5.25
2022-10-15T11:24:07.954Z,5.40
2022-10-15T11:26:46.099Z,5.32
2022-10-15T11:29:33.972Z,5.22
2022-10-15T11:32:25.933Z,5.05
2022-10-15T11:35:48.226Z,4.93
2022-10-15T11:38:41.528Z,5.32
2022-10-15T11:41:36.570Z,5.43
2022-10-15T11:44:27.555Z,5.53
2022-10-15T11:47:18.772Z,5.20
2022-10-15T11:49:59.365Z,5.18
2022-10-15T11:52:38.538Z,5.10
2022-10-15T11:55:20.653Z,5.18
2022-10-15T11:57:50.718Z,5.78
2022-10-15T12:00:34.217Z,5.32
2022-10-15T12:03:14.984Z,5.20
2022-10-15T12:05:56.837Z,5.00
2022-10-15T12:08:27.989Z,5.20
2022-10-15T12:11:10.960Z,5.10
2022-10-15T12:13:55.999Z,5.20
2022-10-15T12:16:35.439Z,4.88
2022-10-15T12:19:49.996Z,5.20
2022-10-15T12:22:37.537Z,5.00
2022-10-15T12:25:05.017Z,5.15
2022-10-15T12:27:36.486Z,5.10
2022-10-15T12:30:02.816Z,5.15
2022-10-15T12:32:46.456Z,4.97
2022-10-15T12:35:29.038Z,5.20
2022-10-15T12:37:55.692Z,5.07
2022-10-15T12:40:21.933Z,5.30
2022-10-15T12:42:55.407Z,5.10
2022-10-15T12:45:25.000Z,5.43
2022-10-15T12:47:56.156Z,5.00
2022-10-15T12:50:27.503Z,5.22
2022-10-15T12:52:57.442Z,5.38
2022-10-15T12:55:30.981Z,5.18
2022-10-15T12:58:30.373Z,4.93
2022-10-15T13:01:23.939Z,14.13
2022-10-15T13:03:50.298Z,5.20
2022-10-15T13:06:25.429Z,5.30
2022-10-15T13:08:54.072Z,5.00
2022-10-15T13:11:43.926Z,5.20
2022-10-15T13:14:19.549Z,5.63
2022-10-15T13:16:47.807Z,5.20
2022-10-15T13:19:19.445Z,5.43
2022-10-15T13:21:54.526Z,5.40
2022-10-15T13:24:29.005Z,5.20
2022-10-15T13:26:57.520Z,5.10
2022-10-15T13:29:27.594Z,5.03
2022-10-15T13:31:57.313Z,5.10
2022-10-15T13:34:36.308Z,5.28
2022-10-15T13:37:04.520Z,5.07
2022-10-15T13:39:37.357Z,5.20
2022-10-15T13:42:25.201Z,5.00
2022-10-15T13:45:01.843Z,5.30
2022-10-15T13:47:32.239Z,5.20
2022-10-15T13:50:39.973Z,5.47
2022-10-15T13:53:09.096Z,5.40
2022-10-15T13:55:44.030Z,5.40
2022-10-15T13:58:29.105Z,5.47
2022-10-15T14:00:55.621Z,5.18
2022-10-15T14:03:24.820Z,6.60
2022-10-15T14:05:54.008Z,5.68
2022-10-15T14:08:21.947Z,5.70
2022-10-15T14:10:50.298Z,5.60
2022-10-15T14:13:16.836Z,6.07
2022-10-15T14:15:59.299Z,5.40
2022-10-15T14:18:38.490Z,5.40
2022-10-15T14:21:12.054Z,5.38
2022-10-15T14:23:39.583Z,5.20
2022-10-15T14:26:10.680Z,5.50
2022-10-15T14:28:38.062Z,5.03
2022-10-15T14:31:05.722Z,5.15
2022-10-15T14:33:40.430Z,5.13
2022-10-15T14:36:22.843Z,5.40
2022-10-15T14:38:51.079Z,5.18
2022-10-15T14:41:34.455Z,5.25
2022-10-15T14:44:26.004Z,5.38
2022-10-15T14:47:02.841Z,5.65
2022-10-15T14:49:33.088Z,5.40
2022-10-15T14:52:16.346Z,5.13
2022-10-15T14:54:48.162Z,4.93
2022-10-15T14:57:22.383Z,5.13
2022-10-15T14:59:53.326Z,5.00
2022-10-15T15:02:20.218Z,4.97
2022-10-15T15:05:06.757Z,5.05
2022-10-15T15:07:33.509Z,5.40
2022-10-15T15:09:59.820Z,5.05
2022-10-15T15:12:28.255Z,5.22
2022-10-15T15:14:54.701Z,5.38
2022-10-15T15:17:23.688Z,5.30
2022-10-15T15:19:52.184Z,5.25
2022-10-15T15:22:28.423Z,5.28
2022-10-15T15:24:55.555Z,5.50
2022-10-15T15:27:28.112Z,5.55
2022-10-15T15:29:55.363Z,5.15
2022-10-15T15:32:23.210Z,5.40
2022-10-15T15:34:51.293Z,5.15
2022-10-15T15:37:22.870Z,5.63
2022-10-15T15:39:49.644Z,5.43
2022-10-15T15:42:22.198Z,5.07
2022-10-15T15:47:15.516Z,5.90
2022-10-15T15:49:42.181Z,5.50
2022-10-15T15:52:16.608Z,5.43
2022-10-15T15:54:43.314Z,5.28
2022-10-15T15:57:09.687Z,5.47
2022-10-15T15:59:36.132Z,5.60
2022-10-15T16:02:05.961Z,6.28
2022-10-15T16:04:32.364Z,5.97
2022-10-15T16:06:58.694Z,5.30
2022-10-15T16:09:26.721Z,5.50
2022-10-15T16:11:53.536Z,5.18
2022-10-15T16:14:19.873Z,5.22
2022-10-15T16:16:46.185Z,5.50
2022-10-15T16:19:12.496Z,5.63
2022-10-15T16:21:38.808Z,5.38
2022-10-15T16:24:05.457Z,5.47
2022-10-15T16:26:32.864Z,5.40
2022-10-15T16:28:59.240Z,5.45
2022-10-15T16:31:30.357Z,5.50
2022-10-15T16:33:57.344Z,4.97
2022-10-15T16:36:24.083Z,5.43
2022-10-15T16:38:50.473Z,5.70
2022-10-15T16:41:19.136Z,5.70
2022-10-15T16:43:47.313Z,5.20
2022-10-15T16:46:14.564Z,5.10
2022-10-15T16:48:40.873Z,5.22
2022-10-15T16:51:15.370Z,5.18
2022-10-15T16:53:43.593Z,4.90
2022-10-15T16:56:22.501Z,5.25
2022-10-15T16:58:48.945Z,5.20
2022-10-15T17:01:19.285Z,5.20
2022-10-15T17:03:46.567Z,5.15
2022-10-15T17:06:15.612Z,6.75
2022-10-15T17:08:45.512Z,5.30
2022-10-15T17:11:14.561Z,5.40
2022-10-15T17:13:41.130Z,5.55
2022-10-15T17:16:19.714Z,5.15
2022-10-15T17:18:47.211Z,5.20
2022-10-15T17:21:16.422Z,4.90
2022-10-15T17:23:43.680Z,5.10
2022-10-15T17:26:13.965Z,5.40
2022-10-15T17:28:40.517Z,5.13
2022-10-15T17:31:09.156Z,5.13
2022-10-15T17:33:36.873Z,4.88
2022-10-15T17:36:12.481Z,5.22
2022-10-15T17:38:38.819Z,5.90
2022-10-15T17:41:10.516Z,5.45
2022-10-15T17:43:39.955Z,5.47
2022-10-15T17:46:14.808Z,5.43
2022-10-15T17:48:41.835Z,5.25
2022-10-15T17:51:10.988Z,5.60
2022-10-15T17:53:37.888Z,5.20
2022-10-15T17:56:16.655Z,5.20
2022-10-15T17:58:44.478Z,5.35
2022-10-15T18:01:27.934Z,5.07
2022-10-15T18:04:05.202Z,5.60
2022-10-15T18:06:32.154Z,5.15
2022-10-15T18:08:59.569Z,5.43
2022-10-15T18:11:34.272Z,5.78
2022-10-15T18:14:00.852Z,5.72
2022-10-15T18:16:27.365Z,5.70
2022-10-15T18:18:54.574Z,5.63
2022-10-15T18:21:23.103Z,5.55
2022-10-15T18:23:49.470Z,6.28
2022-10-15T18:26:20.026Z,6.13
2022-10-15T18:28:48.086Z,5.40
2022-10-15T18:31:15.469Z,5.10
2022-10-15T18:33:44.248Z,5.25
2022-10-15T18:36:13.349Z,4.95
2022-10-15T18:38:42.828Z,5.18
2022-10-15T18:41:19.459Z,5.22
2022-10-15T18:43:56.001Z,5.00
2022-10-15T18:46:22.750Z,5.00
2022-10-15T18:48:49.265Z,5.00
2022-10-15T18:51:15.644Z,5.65
2022-10-15T18:53:42.288Z,4.80
2022-10-15T18:56:10.037Z,5.30
2022-10-15T18:58:38.870Z,5.03
2022-10-15T19:01:24.801Z,5.22
2022-10-15T19:03:52.466Z,5.55
2022-10-15T19:06:20.229Z,4.93
2022-10-15T19:08:46.649Z,5.10
2022-10-15T19:11:13.050Z,4.90
2022-10-15T19:13:39.389Z,4.85
2022-10-15T19:16:06.124Z,4.85
2022-10-15T19:18:33.489Z,4.53
2022-10-15T19:20:59.811Z,4.80
2022-10-15T19:23:26.398Z,4.70
2022-10-15T19:25:52.745Z,5.05
2022-10-15T19:28:19.337Z,5.00
2022-10-15T19:30:54.657Z,5.07
2022-10-15T19:33:20.937Z,4.78
2022-10-15T19:35:47.216Z,5.10
2022-10-15T19:38:13.661Z,5.20
2022-10-15T19:40:40.596Z,5.50
2022-10-15T19:43:08.025Z,5.50
2022-10-15T19:45:38.826Z,5.10
2022-10-15T19:48:05.982Z,5.40
2022-10-15T19:50:36.348Z,5.30
2022-10-15T19:53:02.745Z,6.10
2022-10-15T19:55:29.073Z,5.47
2022-10-15T19:57:55.585Z,5.88
2022-10-15T20:00:21.968Z,5.30
2022-10-15T20:02:48.255Z,5.35
2022-10-15T20:05:15.456Z,5.93
2022-10-15T20:07:42.398Z,5.40
2022-10-15T20:10:09.938Z,5.35
2022-10-15T20:12:36.661Z,5.25
2022-10-15T20:15:03.511Z,5.32
2022-10-15T20:17:29.878Z,5.68
2022-10-15T20:19:56.289Z,5.50
2022-10-15T20:22:22.904Z,5.90
2022-10-15T20:24:49.558Z,5.57
2022-10-15T20:27:16.020Z,5.60
2022-10-15T20:29:42.378Z,5.05
2022-10-15T20:32:30.083Z,5.50
2022-10-15T20:34:59.540Z,5.90
2022-10-15T20:37:25.951Z,5.32
2022-10-15T20:39:52.285Z,5.57
2022-10-15T20:42:18.694Z,5.45
2022-10-15T20:44:45.019Z,5.75
2022-10-15T20:47:14.083Z,5.95
2022-10-15T20:49:45.377Z,5.10
2022-10-15T20:52:13.549Z,5.13
2022-10-15T20:54:39.868Z,5.30
2022-10-15T20:57:06.357Z,5.88
2022-10-15T20:59:32.803Z,5.88
2022-10-15T21:01:59.135Z,5.20
2022-10-15T21:04:25.489Z,5.60
2022-10-15T21:06:51.867Z,5.68
2022-10-15T21:09:18.184Z,5.50
2022-10-15T21:11:46.116Z,5.68
2022-10-15T21:14:13.509Z,5.43
2022-10-15T21:16:40.605Z,5.78
2022-10-15T21:19:07.125Z,5.07
2022-10-15T21:21:33.552Z,5.20
2022-10-15T21:23:59.949Z,5.20
2022-10-15T21:26:26.707Z,5.63
2022-10-15T21:28:57.640Z,5.45
2022-10-15T21:31:25.493Z,5.38
2022-10-15T21:33:54.163Z,5.30
2022-10-15T21:36:22.114Z,5.80
2022-10-15T21:38:52.247Z,5.20
2022-10-15T21:41:18.643Z,5.30
2022-10-15T21:43:45.099Z,6.05
2022-10-15T21:46:13.356Z,5.43
2022-10-15T21:48:41.131Z,4.72
2022-10-15T21:51:23.823Z,5.88
2022-10-15T21:53:50.340Z,5.20
2022-10-15T21:56:17.577Z,5.38
2022-10-15T21:58:44.222Z,5.25
2022-10-15T22:01:15.810Z,5.30
2022-10-15T22:03:44.451Z,5.65
2022-10-15T22:06:11.944Z,5.20
2022-10-15T22:08:38.819Z,5.20
2022-10-15T22:11:12.148Z,5.50
2022-10-15T22:13:39.851Z,5.55
2022-10-15T22:16:06.637Z,5.43
2022-10-15T22:18:33.615Z,5.30
2022-10-15T22:21:18.892Z,5.28
2022-10-15T22:23:47.373Z,5.15
2022-10-15T22:26:15.763Z,5.53
2022-10-15T22:28:42.842Z,4.88
2022-10-15T22:31:12.192Z,5.97
2022-10-15T22:33:40.510Z,5.00
2022-10-15T22:36:13.236Z,5.18
2022-10-15T22:41:07.535Z,5.38
2022-10-15T22:43:34.211Z,5.13
2022-10-15T22:46:00.557Z,5.03
2022-10-15T22:48:27.155Z,4.90
2022-10-15T22:51:00.347Z,5.32
2022-10-15T22:53:27.476Z,5.18
2022-10-15T22:56:20.097Z,5.00
2022-10-15T22:58:46.887Z,5.47
2022-10-15T23:01:14.624Z,5.57
2022-10-15T23:03:43.328Z,5.30
2022-10-15T23:06:10.542Z,5.00
2022-10-15T23:08:37.030Z,5.25
2022-10-15T23:11:11.547Z,4.97
2022-10-15T23:13:39.960Z,4.90
2022-10-15T23:16:17.586Z,5.40
2022-10-15T23:18:45.562Z,5.22
2022-10-15T23:21:18.638Z,4.85
2022-10-15T23:23:46.024Z,4.78
2022-10-15T23:26:16.380Z,5.00
2022-10-15T23:28:44.162Z,5.10
2022-10-15T23:31:18.364Z,4.70
2022-10-15T23:33:45.368Z,5.20
2022-10-15T23:36:12.098Z,4.60
2022-10-15T23:38:38.443Z,4.60
2022-10-15T23:41:07.734Z,4.72
2022-10-15T23:43:34.423Z,5.30
2022-10-15T23:46:01.047Z,4.60
2022-10-15T23:48:28.449Z,5.13
2022-10-15T23:50:57.857Z,4.60
2022-10-15T23:53:25.886Z,4.68
2022-10-15T23:55:52.293Z,4.60
2022-10-15T23:58:18.982Z,4.80
